sensor_id;sensor_type;location;lat;lon;timestamp;temperature;humidity
5806;DHT22;2929;50.810;8.342;2022-09-01T00:00:44;12.80;99.90
5806;DHT22;2929;50.810;8.342;2022-09-01T00:03:14;12.80;99.90
5806;DHT22;2929;50.810;8.342;2022-09-01T00:05:41;12.70;99.90
5806;DHT22;2929;50.810;8.342;2022-09-01T00:08:09;12.60;99.90
5806;DHT22;2929;50.810;8.342;2022-09-01T00:10:36;12.50;99.90
5806;DHT22;2929;50.810;8.342;2022-09-01T00:13:04;12.50;99.90
5806;DHT22;2929;50.810;8.342;2022-09-01T00:15:33;12.40;99.90
5806;DHT22;2929;50.810;8.342;2022-09-01T00:18:00;12.40;99.90
5806;DHT22;2929;50.810;8.342;2022-09-01T00:20:28;12.40;99.90
5806;DHT22;2929;50.810;8.342;2022-09-01T00:22:55;12.50;99.90
5806;DHT22;2929;50.810;8.342;2022-09-01T00:25:22;12.40;99.90
5806;DHT22;2929;50.810;8.342;2022-09-01T00:27:50;12.40;99.90
5806;DHT22;2929;50.810;8.342;2022-09-01T00:30:20;12.20;99.90
5806;DHT22;2929;50.810;8.342;2022-09-01T00:32:49;12.20;99.90
5806;DHT22;2929;50.810;8.342;2022-09-01T00:35:17;12.20;99.90
5806;DHT22;2929;50.810;8.342;2022-09-01T00:37:45;12.30;99.90
5806;DHT22;2929;50.810;8.342;2022-09-01T00:40:13;12.30;99.90
5806;DHT22;2929;50.810;8.342;2022-09-01T00:42:41;12.20;99.90
5806;DHT22;2929;50.810;8.342;2022-09-01T00:45:10;12.10;99.90
5806;DHT22;2929;50.810;8.342;2022-09-01T00:47:37;11.90;99.90
5806;DHT22;2929;50.810;8.342;2022-09-01T00:50:08;12.00;99.90
5806;DHT22;2929;50.810;8.342;2022-09-01T00:52:42;11.90;99.90
5806;DHT22;2929;50.810;8.342;2022-09-01T00:55:15;11.80;99.90
5806;DHT22;2929;50.810;8.342;2022-09-01T00:57:43;11.90;99.90
5806;DHT22;2929;50.810;8.342;2022-09-01T01:00:15;12.00;99.90
5806;DHT22;2929;50.810;8.342;2022-09-01T01:02:43;12.00;99.90
5806;DHT22;2929;50.810;8.342;2022-09-01T01:05:12;11.90;99.90
5806;DHT22;2929;50.810;8.342;2022-09-01T01:07:41;12.00;99.90
5806;DHT22;2929;50.810;8.342;2022-09-01T01:10:10;11.80;99.90
5806;DHT22;2929;50.810;8.342;2022-09-01T01:12:38;11.80;99.90
5806;DHT22;2929;50.810;8.342;2022-09-01T01:15:09;11.80;99.90
5806;DHT22;2929;50.810;8.342;2022-09-01T01:17:37;11.80;99.90
5806;DHT22;2929;50.810;8.342;2022-09-01T01:20:06;11.70;99.90
5806;DHT22;2929;50.810;8.342;2022-09-01T01:22:58;11.70;99.90
5806;DHT22;2929;50.810;8.342;2022-09-01T01:25:36;11.70;99.90
5806;DHT22;2929;50.810;8.342;2022-09-01T01:28:10;11.70;99.90
5806;DHT22;2929;50.810;8.342;2022-09-01T01:30:39;11.70;99.90
5806;DHT22;2929;50.810;8.342;2022-09-01T01:33:06;11.80;99.90
5806;DHT22;2929;50.810;8.342;2022-09-01T01:35:33;11.80;99.90
5806;DHT22;2929;50.810;8.342;2022-09-01T01:38:03;11.80;99.90
5806;DHT22;2929;50.810;8.342;2022-09-01T01:40:34;11.70;99.90
5806;DHT22;2929;50.810;8.342;2022-09-01T01:43:02;11.70;99.90
5806;DHT22;2929;50.810;8.342;2022-09-01T01:45:29;11.60;99.90
5806;DHT22;2929;50.810;8.342;2022-09-01T01:47:57;11.60;99.90
5806;DHT22;2929;50.810;8.342;2022-09-01T01:50:28;11.70;99.90
5806;DHT22;2929;50.810;8.342;2022-09-01T01:53:00;11.70;99.90
5806;DHT22;2929;50.810;8.342;2022-09-01T01:55:28;11.70;99.90
5806;DHT22;2929;50.810;8.342;2022-09-01T01:57:59;11.70;99.90
5806;DHT22;2929;50.810;8.342;2022-09-01T02:00:30;11.50;99.90
5806;DHT22;2929;50.810;8.342;2022-09-01T02:02:59;11.60;99.90
5806;DHT22;2929;50.810;8.342;2022-09-01T02:05:28;11.50;99.90
5806;DHT22;2929;50.810;8.342;2022-09-01T02:07:59;11.30;99.90
5806;DHT22;2929;50.810;8.342;2022-09-01T02:10:30;11.20;99.90
5806;DHT22;2929;50.810;8.342;2022-09-01T02:13:00;11.10;99.90
5806;DHT22;2929;50.810;8.342;2022-09-01T02:15:31;11.20;99.90
5806;DHT22;2929;50.810;8.342;2022-09-01T02:18:08;11.00;99.90
5806;DHT22;2929;50.810;8.342;2022-09-01T02:23:58;11.00;99.90
5806;DHT22;2929;50.810;8.342;2022-09-01T02:26:30;10.90;99.90
5806;DHT22;2929;50.810;8.342;2022-09-01T02:29:03;11.10;99.90
5806;DHT22;2929;50.810;8.342;2022-09-01T02:31:31;11.20;99.90
5806;DHT22;2929;50.810;8.342;2022-09-01T02:34:02;11.30;99.90
5806;DHT22;2929;50.810;8.342;2022-09-01T02:36:29;11.40;99.90
5806;DHT22;2929;50.810;8.342;2022-09-01T02:39:00;11.40;99.90
5806;DHT22;2929;50.810;8.342;2022-09-01T02:41:27;11.30;99.90
5806;DHT22;2929;50.810;8.342;2022-09-01T02:43:55;11.20;99.90
5806;DHT22;2929;50.810;8.342;2022-09-01T02:46:28;11.20;99.90
5806;DHT22;2929;50.810;8.342;2022-09-01T02:48:55;11.30;99.90
5806;DHT22;2929;50.810;8.342;2022-09-01T02:51:25;11.30;99.90
5806;DHT22;2929;50.810;8.342;2022-09-01T02:53:52;11.30;99.90
5806;DHT22;2929;50.810;8.342;2022-09-01T02:56:22;11.30;99.90
5806;DHT22;2929;50.810;8.342;2022-09-01T02:58:53;11.30;99.90
5806;DHT22;2929;50.810;8.342;2022-09-01T03:01:24;11.20;99.90
5806;DHT22;2929;50.810;8.342;2022-09-01T03:03:55;11.30;99.90
5806;DHT22;2929;50.810;8.342;2022-09-01T03:06:24;11.20;99.90
5806;DHT22;2929;50.810;8.342;2022-09-01T03:08:53;11.20;99.90
5806;DHT22;2929;50.810;8.342;2022-09-01T03:11:21;11.30;99.90
5806;DHT22;2929;50.810;8.342;2022-09-01T03:13:51;11.20;99.90
5806;DHT22;2929;50.810;8.342;2022-09-01T03:16:18;11.10;99.90
5806;DHT22;2929;50.810;8.342;2022-09-01T03:18:48;11.10;99.90
5806;DHT22;2929;50.810;8.342;2022-09-01T03:21:18;11.10;99.90
5806;DHT22;2929;50.810;8.342;2022-09-01T03:23:47;11.10;99.90
5806;DHT22;2929;50.810;8.342;2022-09-01T03:26:15;11.10;99.90
5806;DHT22;2929;50.810;8.342;2022-09-01T03:28:44;11.10;99.90
5806;DHT22;2929;50.810;8.342;2022-09-01T03:31:11;11.10;99.90
5806;DHT22;2929;50.810;8.342;2022-09-01T03:33:38;11.10;99.90
5806;DHT22;2929;50.810;8.342;2022-09-01T03:36:11;11.10;99.90
5806;DHT22;2929;50.810;8.342;2022-09-01T03:38:46;11.10;99.90
5806;DHT22;2929;50.810;8.342;2022-09-01T03:41:15;11.10;99.90
5806;DHT22;2929;50.810;8.342;2022-09-01T03:43:44;11.10;99.90
5806;DHT22;2929;50.810;8.342;2022-09-01T03:46:12;11.10;99.90
5806;DHT22;2929;50.810;8.342;2022-09-01T03:48:45;11.00;99.90
5806;DHT22;2929;50.810;8.342;2022-09-01T03:51:14;11.00;99.90
5806;DHT22;2929;50.810;8.342;2022-09-01T03:53:42;10.90;99.90
5806;DHT22;2929;50.810;8.342;2022-09-01T03:56:11;10.80;99.90
5806;DHT22;2929;50.810;8.342;2022-09-01T03:58:40;10.80;99.90
5806;DHT22;2929;50.810;8.342;2022-09-01T04:01:09;10.70;99.90
5806;DHT22;2929;50.810;8.342;2022-09-01T04:03:38;10.80;99.90
5806;DHT22;2929;50.810;8.342;2022-09-01T04:06:08;10.80;99.90
5806;DHT22;2929;50.810;8.342;2022-09-01T04:08:35;10.80;99.90
5806;DHT22;2929;50.810;8.342;2022-09-01T04:11:09;10.80;99.90
5806;DHT22;2929;50.810;8.342;2022-09-01T04:13:40;10.70;99.90
5806;DHT22;2929;50.810;8.342;2022-09-01T04:16:16;10.70;99.90
5806;DHT22;2929;50.810;8.342;2022-09-01T04:19:06;10.60;99.90
5806;DHT22;2929;50.810;8.342;2022-09-01T04:21:42;10.60;99.90
5806;DHT22;2929;50.810;8.342;2022-09-01T04:24:10;10.50;99.90
5806;DHT22;2929;50.810;8.342;2022-09-01T04:26:40;10.50;99.90
5806;DHT22;2929;50.810;8.342;2022-09-01T04:29:08;10.50;99.90
5806;DHT22;2929;50.810;8.342;2022-09-01T04:31:36;10.50;99.90
5806;DHT22;2929;50.810;8.342;2022-09-01T04:34:06;10.30;99.90
5806;DHT22;2929;50.810;8.342;2022-09-01T04:36:41;10.10;99.90
5806;DHT22;2929;50.810;8.342;2022-09-01T04:39:09;10.10;99.90
5806;DHT22;2929;50.810;8.342;2022-09-01T04:41:40;10.10;99.90
5806;DHT22;2929;50.810;8.342;2022-09-01T04:44:09;10.00;99.90
5806;DHT22;2929;50.810;8.342;2022-09-01T04:46:40;9.90;99.90
5806;DHT22;2929;50.810;8.342;2022-09-01T04:49:12;9.90;99.90
5806;DHT22;2929;50.810;8.342;2022-09-01T04:51:45;9.90;99.90
5806;DHT22;2929;50.810;8.342;2022-09-01T04:54:13;9.90;99.90
5806;DHT22;2929;50.810;8.342;2022-09-01T04:56:47;9.90;99.90
5806;DHT22;2929;50.810;8.342;2022-09-01T04:59:19;9.90;99.90
5806;DHT22;2929;50.810;8.342;2022-09-01T05:01:51;10.10;99.90
5806;DHT22;2929;50.810;8.342;2022-09-01T05:04:21;9.90;99.90
5806;DHT22;2929;50.810;8.342;2022-09-01T05:06:51;10.00;99.90
5806;DHT22;2929;50.810;8.342;2022-09-01T05:09:19;9.90;99.90
5806;DHT22;2929;50.810;8.342;2022-09-01T05:12:12;9.90;99.90
5806;DHT22;2929;50.810;8.342;2022-09-01T05:14:45;9.90;99.90
5806;DHT22;2929;50.810;8.342;2022-09-01T05:17:16;9.90;99.90
5806;DHT22;2929;50.810;8.342;2022-09-01T05:19:46;10.00;99.90
5806;DHT22;2929;50.810;8.342;2022-09-01T05:22:15;10.10;99.90
5806;DHT22;2929;50.810;8.342;2022-09-01T05:24:54;10.10;99.90
5806;DHT22;2929;50.810;8.342;2022-09-01T05:27:25;10.00;99.90
5806;DHT22;2929;50.810;8.342;2022-09-01T05:29:55;9.90;99.90
5806;DHT22;2929;50.810;8.342;2022-09-01T05:32:25;9.90;99.90
5806;DHT22;2929;50.810;8.342;2022-09-01T05:34:52;10.00;99.90
5806;DHT22;2929;50.810;8.342;2022-09-01T05:37:20;10.10;99.90
5806;DHT22;2929;50.810;8.342;2022-09-01T05:39:48;10.00;99.90
5806;DHT22;2929;50.810;8.342;2022-09-01T05:42:15;10.10;99.90
5806;DHT22;2929;50.810;8.342;2022-09-01T05:44:42;10.20;99.90
5806;DHT22;2929;50.810;8.342;2022-09-01T05:47:11;10.20;99.90
5806;DHT22;2929;50.810;8.342;2022-09-01T05:49:40;10.20;99.90
5806;DHT22;2929;50.810;8.342;2022-09-01T05:52:07;10.30;99.90
5806;DHT22;2929;50.810;8.342;2022-09-01T05:54:36;10.30;99.90
5806;DHT22;2929;50.810;8.342;2022-09-01T05:57:04;10.50;99.90
5806;DHT22;2929;50.810;8.342;2022-09-01T05:59:32;10.50;99.90
5806;DHT22;2929;50.810;8.342;2022-09-01T06:02:04;10.60;99.90
5806;DHT22;2929;50.810;8.342;2022-09-01T06:04:36;10.70;99.90
5806;DHT22;2929;50.810;8.342;2022-09-01T06:07:10;10.70;99.90
5806;DHT22;2929;50.810;8.342;2022-09-01T06:09:45;10.80;99.90
5806;DHT22;2929;50.810;8.342;2022-09-01T06:12:14;10.90;99.90
5806;DHT22;2929;50.810;8.342;2022-09-01T06:14:48;11.00;99.90
5806;DHT22;2929;50.810;8.342;2022-09-01T06:17:17;11.10;99.90
5806;DHT22;2929;50.810;8.342;2022-09-01T06:19:48;11.20;99.90
5806;DHT22;2929;50.810;8.342;2022-09-01T06:22:17;11.40;99.90
5806;DHT22;2929;50.810;8.342;2022-09-01T06:24:45;11.50;99.90
5806;DHT22;2929;50.810;8.342;2022-09-01T06:27:13;11.60;99.90
5806;DHT22;2929;50.810;8.342;2022-09-01T06:29:43;11.80;99.90
5806;DHT22;2929;50.810;8.342;2022-09-01T06:32:12;12.00;99.90
5806;DHT22;2929;50.810;8.342;2022-09-01T06:34:41;12.20;99.90
5806;DHT22;2929;50.810;8.342;2022-09-01T06:37:10;12.50;99.90
5806;DHT22;2929;50.810;8.342;2022-09-01T06:39:40;12.60;99.90
5806;DHT22;2929;50.810;8.342;2022-09-01T06:42:08;12.80;99.90
5806;DHT22;2929;50.810;8.342;2022-09-01T06:44:46;12.90;99.90
5806;DHT22;2929;50.810;8.342;2022-09-01T06:47:13;13.00;99.90
5806;DHT22;2929;50.810;8.342;2022-09-01T06:49:41;13.20;99.90
5806;DHT22;2929;50.810;8.342;2022-09-01T06:52:16;13.30;99.90
5806;DHT22;2929;50.810;8.342;2022-09-01T06:54:48;13.50;99.90
5806;DHT22;2929;50.810;8.342;2022-09-01T06:57:18;13.60;99.90
5806;DHT22;2929;50.810;8.342;2022-09-01T06:59:46;13.70;99.90
5806;DHT22;2929;50.810;8.342;2022-09-01T07:02:15;13.80;99.90
5806;DHT22;2929;50.810;8.342;2022-09-01T07:05:06;14.00;99.90
5806;DHT22;2929;50.810;8.342;2022-09-01T07:07:35;14.10;99.90
5806;DHT22;2929;50.810;8.342;2022-09-01T07:10:03;14.20;99.90
5806;DHT22;2929;50.810;8.342;2022-09-01T07:12:37;14.20;99.90
5806;DHT22;2929;50.810;8.342;2022-09-01T07:15:07;14.30;99.90
5806;DHT22;2929;50.810;8.342;2022-09-01T07:17:34;14.50;99.90
5806;DHT22;2929;50.810;8.342;2022-09-01T07:20:07;14.70;99.90
5806;DHT22;2929;50.810;8.342;2022-09-01T07:22:37;14.80;99.90
5806;DHT22;2929;50.810;8.342;2022-09-01T07:25:05;14.90;99.90
5806;DHT22;2929;50.810;8.342;2022-09-01T07:27:59;15.00;99.90
5806;DHT22;2929;50.810;8.342;2022-09-01T07:30:27;15.10;99.90
5806;DHT22;2929;50.810;8.342;2022-09-01T07:32:56;15.20;99.90
5806;DHT22;2929;50.810;8.342;2022-09-01T07:35:24;15.30;99.90
5806;DHT22;2929;50.810;8.342;2022-09-01T07:37:53;15.40;99.90
5806;DHT22;2929;50.810;8.342;2022-09-01T07:40:27;15.60;99.90
5806;DHT22;2929;50.810;8.342;2022-09-01T07:43:16;15.70;99.90
5806;DHT22;2929;50.810;8.342;2022-09-01T07:46:10;15.80;99.90
5806;DHT22;2929;50.810;8.342;2022-09-01T07:48:38;16.00;99.90
5806;DHT22;2929;50.810;8.342;2022-09-01T07:51:06;16.00;99.90
5806;DHT22;2929;50.810;8.342;2022-09-01T07:53:35;16.10;99.90
5806;DHT22;2929;50.810;8.342;2022-09-01T07:56:06;16.20;99.90
5806;DHT22;2929;50.810;8.342;2022-09-01T07:58:38;16.30;99.90
5806;DHT22;2929;50.810;8.342;2022-09-01T08:01:07;16.40;99.90
5806;DHT22;2929;50.810;8.342;2022-09-01T08:03:36;16.40;99.90
5806;DHT22;2929;50.810;8.342;2022-09-01T08:06:07;16.50;99.90
5806;DHT22;2929;50.810;8.342;2022-09-01T08:08:37;16.60;99.90
5806;DHT22;2929;50.810;8.342;2022-09-01T08:11:07;16.80;99.90
5806;DHT22;2929;50.810;8.342;2022-09-01T08:13:36;17.00;99.90
5806;DHT22;2929;50.810;8.342;2022-09-01T08:16:06;17.20;99.90
5806;DHT22;2929;50.810;8.342;2022-09-01T08:18:34;17.30;99.90
5806;DHT22;2929;50.810;8.342;2022-09-01T08:21:05;17.40;99.90
5806;DHT22;2929;50.810;8.342;2022-09-01T08:23:36;17.60;99.90
5806;DHT22;2929;50.810;8.342;2022-09-01T08:26:05;17.80;99.90
5806;DHT22;2929;50.810;8.342;2022-09-01T08:28:33;17.70;99.90
5806;DHT22;2929;50.810;8.342;2022-09-01T08:31:05;17.70;99.90
5806;DHT22;2929;50.810;8.342;2022-09-01T08:33:33;17.60;99.90
5806;DHT22;2929;50.810;8.342;2022-09-01T08:36:01;17.50;99.90
5806;DHT22;2929;50.810;8.342;2022-09-01T08:38:29;17.70;99.90
5806;DHT22;2929;50.810;8.342;2022-09-01T08:40:58;17.90;99.90
5806;DHT22;2929;50.810;8.342;2022-09-01T08:43:44;17.90;99.90
5806;DHT22;2929;50.810;8.342;2022-09-01T08:46:16;18.10;99.90
5806;DHT22;2929;50.810;8.342;2022-09-01T08:48:47;18.00;99.90
5806;DHT22;2929;50.810;8.342;2022-09-01T08:51:22;18.00;99.90
5806;DHT22;2929;50.810;8.342;2022-09-01T08:54:03;18.00;99.90
5806;DHT22;2929;50.810;8.342;2022-09-01T08:56:34;18.00;99.90
5806;DHT22;2929;50.810;8.342;2022-09-01T08:59:06;18.20;99.90
5806;DHT22;2929;50.810;8.342;2022-09-01T09:01:58;18.40;99.90
5806;DHT22;2929;50.810;8.342;2022-09-01T09:04:39;18.50;99.90
5806;DHT22;2929;50.810;8.342;2022-09-01T09:07:20;18.50;99.90
5806;DHT22;2929;50.810;8.342;2022-09-01T09:09:52;18.60;99.90
5806;DHT22;2929;50.810;8.342;2022-09-01T09:12:38;18.70;99.90
5806;DHT22;2929;50.810;8.342;2022-09-01T09:15:15;19.00;99.90
5806;DHT22;2929;50.810;8.342;2022-09-01T09:17:48;19.20;99.90
5806;DHT22;2929;50.810;8.342;2022-09-01T09:20:20;19.40;99.90
5806;DHT22;2929;50.810;8.342;2022-09-01T09:22:48;19.60;99.90
5806;DHT22;2929;50.810;8.342;2022-09-01T09:25:17;19.80;99.90
5806;DHT22;2929;50.810;8.342;2022-09-01T09:27:47;20.20;99.90
5806;DHT22;2929;50.810;8.342;2022-09-01T09:30:19;20.20;98.40
5806;DHT22;2929;50.810;8.342;2022-09-01T09:32:49;20.10;98.50
5806;DHT22;2929;50.810;8.342;2022-09-01T09:35:24;20.10;98.10
5806;DHT22;2929;50.810;8.342;2022-09-01T09:37:52;20.10;98.10
5806;DHT22;2929;50.810;8.342;2022-09-01T09:40:21;20.10;98.40
5806;DHT22;2929;50.810;8.342;2022-09-01T09:43:03;20.20;98.00
5806;DHT22;2929;50.810;8.342;2022-09-01T09:45:35;20.30;99.00
5806;DHT22;2929;50.810;8.342;2022-09-01T09:48:08;20.30;97.40
5806;DHT22;2929;50.810;8.342;2022-09-01T09:50:37;20.20;97.30
5806;DHT22;2929;50.810;8.342;2022-09-01T09:53:13;20.20;97.40
5806;DHT22;2929;50.810;8.342;2022-09-01T09:55:57;20.40;97.20
5806;DHT22;2929;50.810;8.342;2022-09-01T09:58:33;20.50;98.10
5806;DHT22;2929;50.810;8.342;2022-09-01T10:01:05;20.50;96.50
5806;DHT22;2929;50.810;8.342;2022-09-01T10:03:39;20.40;96.10
5806;DHT22;2929;50.810;8.342;2022-09-01T10:06:10;20.40;96.60
5806;DHT22;2929;50.810;8.342;2022-09-01T10:08:40;20.60;96.30
5806;DHT22;2929;50.810;8.342;2022-09-01T10:11:11;20.80;96.90
5806;DHT22;2929;50.810;8.342;2022-09-01T10:13:53;21.10;94.50
5806;DHT22;2929;50.810;8.342;2022-09-01T10:16:25;21.30;94.40
5806;DHT22;2929;50.810;8.342;2022-09-01T10:18:53;21.40;95.30
5806;DHT22;2929;50.810;8.342;2022-09-01T10:21:30;21.60;94.90
5806;DHT22;2929;50.810;8.342;2022-09-01T10:23:58;21.80;94.10
5806;DHT22;2929;50.810;8.342;2022-09-01T10:26:30;22.00;92.60
5806;DHT22;2929;50.810;8.342;2022-09-01T10:29:05;22.10;92.30
5806;DHT22;2929;50.810;8.342;2022-09-01T10:31:34;22.30;92.30
5806;DHT22;2929;50.810;8.342;2022-09-01T10:34:03;22.20;91.20
5806;DHT22;2929;50.810;8.342;2022-09-01T10:36:31;21.90;91.90
5806;DHT22;2929;50.810;8.342;2022-09-01T10:39:00;21.70;90.80
5806;DHT22;2929;50.810;8.342;2022-09-01T10:41:47;21.50;92.10
5806;DHT22;2929;50.810;8.342;2022-09-01T10:44:21;21.30;92.70
5806;DHT22;2929;50.810;8.342;2022-09-01T10:46:49;21.40;92.80
5806;DHT22;2929;50.810;8.342;2022-09-01T10:55:43;21.70;91.40
5806;DHT22;2929;50.810;8.342;2022-09-01T11:01:11;22.80;89.60
5806;DHT22;2929;50.810;8.342;2022-09-01T11:04:00;23.40;86.20
5806;DHT22;2929;50.810;8.342;2022-09-01T11:06:52;23.30;84.70
5806;DHT22;2929;50.810;8.342;2022-09-01T11:09:25;23.60;85.40
5806;DHT22;2929;50.810;8.342;2022-09-01T11:15:03;23.90;83.30
5806;DHT22;2929;50.810;8.342;2022-09-01T11:17:33;24.20;84.60
5806;DHT22;2929;50.810;8.342;2022-09-01T11:20:05;24.10;80.90
5806;DHT22;2929;50.810;8.342;2022-09-01T11:22:39;23.70;82.10
5806;DHT22;2929;50.810;8.342;2022-09-01T11:28:01;23.30;81.40
5806;DHT22;2929;50.810;8.342;2022-09-01T11:30:41;23.80;80.30
5806;DHT22;2929;50.810;8.342;2022-09-01T11:33:31;24.20;80.90
5806;DHT22;2929;50.810;8.342;2022-09-01T11:36:01;24.80;79.90
5806;DHT22;2929;50.810;8.342;2022-09-01T11:38:33;24.50;76.00
5806;DHT22;2929;50.810;8.342;2022-09-01T11:41:04;24.30;78.80
5806;DHT22;2929;50.810;8.342;2022-09-01T11:43:32;24.70;77.60
5806;DHT22;2929;50.810;8.342;2022-09-01T11:46:07;25.00;76.80
5806;DHT22;2929;50.810;8.342;2022-09-01T11:48:38;24.80;75.70
5806;DHT22;2929;50.810;8.342;2022-09-01T11:51:05;25.40;77.70
5806;DHT22;2929;50.810;8.342;2022-09-01T11:53:32;25.50;75.10
5806;DHT22;2929;50.810;8.342;2022-09-01T11:56:13;26.00;72.60
5806;DHT22;2929;50.810;8.342;2022-09-01T11:58:42;25.90;72.50
5806;DHT22;2929;50.810;8.342;2022-09-01T12:01:14;26.10;71.80
5806;DHT22;2929;50.810;8.342;2022-09-01T12:03:44;26.30;69.80
5806;DHT22;2929;50.810;8.342;2022-09-01T12:06:18;26.80;72.30
5806;DHT22;2929;50.810;8.342;2022-09-01T12:08:52;26.80;68.80
5806;DHT22;2929;50.810;8.342;2022-09-01T12:11:22;26.70;68.00
5806;DHT22;2929;50.810;8.342;2022-09-01T12:13:57;26.60;70.10
5806;DHT22;2929;50.810;8.342;2022-09-01T12:16:25;26.70;68.80
5806;DHT22;2929;50.810;8.342;2022-09-01T12:18:56;26.70;69.30
5806;DHT22;2929;50.810;8.342;2022-09-01T12:21:26;26.20;67.80
5806;DHT22;2929;50.810;8.342;2022-09-01T12:24:09;25.70;68.50
5806;DHT22;2929;50.810;8.342;2022-09-01T12:26:38;25.30;72.40
5806;DHT22;2929;50.810;8.342;2022-09-01T12:29:06;25.30;72.00
5806;DHT22;2929;50.810;8.342;2022-09-01T12:31:34;25.00;72.30
5806;DHT22;2929;50.810;8.342;2022-09-01T12:34:03;25.70;73.00
5806;DHT22;2929;50.810;8.342;2022-09-01T12:36:33;25.90;70.90
5806;DHT22;2929;50.810;8.342;2022-09-01T12:39:19;25.80;69.80
5806;DHT22;2929;50.810;8.342;2022-09-01T12:41:49;25.70;67.80
5806;DHT22;2929;50.810;8.342;2022-09-01T12:44:29;25.90;69.10
5806;DHT22;2929;50.810;8.342;2022-09-01T12:46:58;25.60;67.60
5806;DHT22;2929;50.810;8.342;2022-09-01T12:49:36;26.30;68.60
5806;DHT22;2929;50.810;8.342;2022-09-01T12:52:20;27.00;66.80
5806;DHT22;2929;50.810;8.342;2022-09-01T12:54:52;27.20;65.40
5806;DHT22;2929;50.810;8.342;2022-09-01T12:57:26;27.40;66.40
5806;DHT22;2929;50.810;8.342;2022-09-01T13:00:08;27.90;64.30
5806;DHT22;2929;50.810;8.342;2022-09-01T13:02:42;28.10;63.50
5806;DHT22;2929;50.810;8.342;2022-09-01T13:05:30;28.50;63.00
5806;DHT22;2929;50.810;8.342;2022-09-01T13:07:59;28.30;61.00
5806;DHT22;2929;50.810;8.342;2022-09-01T13:10:30;27.40;62.20
5806;DHT22;2929;50.810;8.342;2022-09-01T13:12:59;27.20;63.60
5806;DHT22;2929;50.810;8.342;2022-09-01T13:15:26;26.70;65.10
5806;DHT22;2929;50.810;8.342;2022-09-01T13:17:53;27.00;63.70
5806;DHT22;2929;50.810;8.342;2022-09-01T13:20:20;27.80;63.80
5806;DHT22;2929;50.810;8.342;2022-09-01T13:22:49;28.40;61.10
5806;DHT22;2929;50.810;8.342;2022-09-01T13:25:18;28.80;61.20
5806;DHT22;2929;50.810;8.342;2022-09-01T13:27:46;28.30;59.50
5806;DHT22;2929;50.810;8.342;2022-09-01T13:30:14;27.70;61.90
5806;DHT22;2929;50.810;8.342;2022-09-01T13:32:42;27.10;63.10
5806;DHT22;2929;50.810;8.342;2022-09-01T13:35:10;26.30;63.80
5806;DHT22;2929;50.810;8.342;2022-09-01T13:37:38;25.90;63.80
5806;DHT22;2929;50.810;8.342;2022-09-01T13:40:07;25.50;66.20
5806;DHT22;2929;50.810;8.342;2022-09-01T13:42:39;25.40;67.40
5806;DHT22;2929;50.810;8.342;2022-09-01T13:45:06;26.20;67.90
5806;DHT22;2929;50.810;8.342;2022-09-01T13:47:34;27.40;64.00
5806;DHT22;2929;50.810;8.342;2022-09-01T13:50:01;28.20;62.30
5806;DHT22;2929;50.810;8.342;2022-09-01T13:52:28;28.70;60.30
5806;DHT22;2929;50.810;8.342;2022-09-01T13:54:55;28.40;58.60
5806;DHT22;2929;50.810;8.342;2022-09-01T13:57:24;27.50;61.50
5806;DHT22;2929;50.810;8.342;2022-09-01T13:59:51;27.60;61.10
5806;DHT22;2929;50.810;8.342;2022-09-01T14:02:20;28.40;60.40
5806;DHT22;2929;50.810;8.342;2022-09-01T14:04:46;29.10;58.60
5806;DHT22;2929;50.810;8.342;2022-09-01T14:07:13;28.10;58.90
5806;DHT22;2929;50.810;8.342;2022-09-01T14:09:43;27.40;59.90
5806;DHT22;2929;50.810;8.342;2022-09-01T14:12:10;26.70;61.60
5806;DHT22;2929;50.810;8.342;2022-09-01T14:14:39;26.20;64.50
5806;DHT22;2929;50.810;8.342;2022-09-01T14:17:06;25.90;64.40
5806;DHT22;2929;50.810;8.342;2022-09-01T14:19:33;25.60;65.50
5806;DHT22;2929;50.810;8.342;2022-09-01T14:22:01;25.40;65.50
5806;DHT22;2929;50.810;8.342;2022-09-01T14:24:32;26.10;66.00
5806;DHT22;2929;50.810;8.342;2022-09-01T14:27:00;26.80;63.70
5806;DHT22;2929;50.810;8.342;2022-09-01T14:29:27;27.10;62.20
5806;DHT22;2929;50.810;8.342;2022-09-01T14:31:56;27.20;60.50
5806;DHT22;2929;50.810;8.342;2022-09-01T14:34:23;26.90;60.70
5806;DHT22;2929;50.810;8.342;2022-09-01T14:36:51;26.30;61.90
5806;DHT22;2929;50.810;8.342;2022-09-01T14:39:22;25.80;62.70
5806;DHT22;2929;50.810;8.342;2022-09-01T14:41:49;25.50;62.80
5806;DHT22;2929;50.810;8.342;2022-09-01T14:44:16;25.30;63.70
5806;DHT22;2929;50.810;8.342;2022-09-01T14:46:43;25.10;64.40
5806;DHT22;2929;50.810;8.342;2022-09-01T14:49:13;25.20;65.00
5806;DHT22;2929;50.810;8.342;2022-09-01T14:51:41;25.30;66.90
5806;DHT22;2929;50.810;8.342;2022-09-01T14:54:08;25.70;63.60
5806;DHT22;2929;50.810;8.342;2022-09-01T14:56:48;25.70;63.40
5806;DHT22;2929;50.810;8.342;2022-09-01T14:59:15;26.20;64.80
5806;DHT22;2929;50.810;8.342;2022-09-01T15:01:44;27.00;61.80
5806;DHT22;2929;50.810;8.342;2022-09-01T15:04:13;27.60;61.00
5806;DHT22;2929;50.810;8.342;2022-09-01T15:06:40;27.70;61.80
5806;DHT22;2929;50.810;8.342;2022-09-01T15:09:07;26.80;59.40
5806;DHT22;2929;50.810;8.342;2022-09-01T15:11:34;26.30;61.70
5806;DHT22;2929;50.810;8.342;2022-09-01T15:14:01;26.20;63.90
5806;DHT22;2929;50.810;8.342;2022-09-01T15:16:28;25.80;63.30
5806;DHT22;2929;50.810;8.342;2022-09-01T15:18:55;26.00;64.30
5806;DHT22;2929;50.810;8.342;2022-09-01T15:21:27;26.60;61.40
5806;DHT22;2929;50.810;8.342;2022-09-01T15:23:58;27.10;60.40
5806;DHT22;2929;50.810;8.342;2022-09-01T15:26:26;27.40;61.10
5806;DHT22;2929;50.810;8.342;2022-09-01T15:28:54;27.60;59.60
5806;DHT22;2929;50.810;8.342;2022-09-01T15:31:22;28.00;59.20
5806;DHT22;2929;50.810;8.342;2022-09-01T15:33:54;27.60;57.40
5806;DHT22;2929;50.810;8.342;2022-09-01T15:36:24;26.80;59.50
5806;DHT22;2929;50.810;8.342;2022-09-01T15:38:54;26.20;60.60
5806;DHT22;2929;50.810;8.342;2022-09-01T15:41:23;25.40;62.30
5806;DHT22;2929;50.810;8.342;2022-09-01T15:43:51;24.90;63.10
5806;DHT22;2929;50.810;8.342;2022-09-01T15:46:19;24.70;63.60
5806;DHT22;2929;50.810;8.342;2022-09-01T15:48:47;24.70;63.90
5806;DHT22;2929;50.810;8.342;2022-09-01T15:51:28;24.80;63.10
5806;DHT22;2929;50.810;8.342;2022-09-01T15:53:59;25.10;63.90
5806;DHT22;2929;50.810;8.342;2022-09-01T15:56:26;25.30;63.40
5806;DHT22;2929;50.810;8.342;2022-09-01T15:58:56;25.40;63.70
5806;DHT22;2929;50.810;8.342;2022-09-01T16:01:25;25.60;62.90
5806;DHT22;2929;50.810;8.342;2022-09-01T16:03:53;25.80;63.70
5806;DHT22;2929;50.810;8.342;2022-09-01T16:06:21;25.90;61.80
5806;DHT22;2929;50.810;8.342;2022-09-01T16:08:48;25.90;61.20
5806;DHT22;2929;50.810;8.342;2022-09-01T16:11:18;25.40;61.70
5806;DHT22;2929;50.810;8.342;2022-09-01T16:13:45;24.70;63.00
5806;DHT22;2929;50.810;8.342;2022-09-01T16:16:24;24.30;64.10
5806;DHT22;2929;50.810;8.342;2022-09-01T16:18:59;24.10;64.80
5806;DHT22;2929;50.810;8.342;2022-09-01T16:21:38;24.20;65.60
5806;DHT22;2929;50.810;8.342;2022-09-01T16:24:09;24.00;65.20
5806;DHT22;2929;50.810;8.342;2022-09-01T16:26:39;24.10;66.30
5806;DHT22;2929;50.810;8.342;2022-09-01T16:29:11;24.10;66.90
5806;DHT22;2929;50.810;8.342;2022-09-01T16:31:39;24.10;65.50
5806;DHT22;2929;50.810;8.342;2022-09-01T16:34:12;23.90;65.50
5806;DHT22;2929;50.810;8.342;2022-09-01T16:36:48;24.00;68.00
5806;DHT22;2929;50.810;8.342;2022-09-01T16:39:22;24.00;66.20
5806;DHT22;2929;50.810;8.342;2022-09-01T16:42:03;24.00;67.90
5806;DHT22;2929;50.810;8.342;2022-09-01T16:44:42;23.80;67.00